Time;durP1;ratioP1;P1;durP2;ratioP2;P2;SDS_P1;SDS_P2;PMS_P1;PMS_P2;Temp;Humidity;BMP_temperature;BMP_pressure;BME280_temperature;BME280_humidity;BME280_pressure;Samples;Min_cycle;Max_cycle;Signal;HPM_P1;HPM_P2
2022/06/06 00:01:11;;;;;;;6.70;6.10;;;23.00;73.50;;;;;;5093937;28;20492;-35
2022/06/06 00:03:38;;;;;;;7.20;6.60;;;23.00;73.70;;;;;;5093600;28;20444;-38
2022/06/06 00:06:10;;;;;;;9.60;8.60;;;23.00;73.80;;;;;;5094872;28;20470;-42
2022/06/06 00:08:39;;;;;;;6.07;5.47;;;23.00;73.90;;;;;;5097673;28;20484;-38
2022/06/06 00:11:08;;;;;;;6.30;5.70;;;23.00;74.10;;;;;;5097510;28;20471;-38
2022/06/06 00:13:35;;;;;;;7.97;6.77;;;23.00;74.20;;;;;;5096859;28;20497;-36
2022/06/06 00:16:03;;;;;;;6.57;5.97;;;23.00;74.10;;;;;;5097098;28;20469;-37
2022/06/06 00:18:31;;;;;;;6.63;6.07;;;23.00;74.10;;;;;;5097471;28;20488;-38
2022/06/06 00:20:58;;;;;;;6.77;6.10;;;23.00;74.70;;;;;;5097352;28;20491;-40
2022/06/06 00:23:25;;;;;;;7.83;6.03;;;23.00;74.40;;;;;;5088052;28;20442;-44
2022/06/06 00:25:54;;;;;;;6.07;5.57;;;22.90;74.50;;;;;;5092817;28;20494;-43
2022/06/06 00:28:21;;;;;;;7.70;6.40;;;22.90;74.70;;;;;;5082883;28;20454;-39
2022/06/06 00:30:48;;;;;;;8.50;6.60;;;22.90;75.00;;;;;;5083343;28;20438;-40
2022/06/06 00:35:57;;;;;;;7.17;6.50;;;22.90;75.10;;;;;;5046925;28;20439;-36
2022/06/06 00:38:24;;;;;;;6.83;6.13;;;22.90;75.30;;;;;;5096600;28;20494;-39
2022/06/06 00:40:53;;;;;;;7.10;6.40;;;22.90;75.50;;;;;;5090578;28;20462;-38
2022/06/06 00:43:21;;;;;;;7.33;6.63;;;22.90;75.60;;;;;;5085700;28;20469;-37
2022/06/06 00:45:54;;;;;;;7.53;6.20;;;22.90;75.90;;;;;;5096738;28;20469;-37
2022/06/06 00:48:24;;;;;;;6.93;6.33;;;22.90;77.30;;;;;;5096494;28;20413;-39
2022/06/06 00:50:59;;;;;;;7.30;6.60;;;22.80;78.40;;;;;;5096188;28;20497;-38
2022/06/06 00:53:38;;;;;;;8.53;5.70;;;22.80;79.90;;;;;;5095888;28;20878;-38
2022/06/06 00:56:12;;;;;;;7.67;6.97;;;22.70;81.10;;;;;;5096334;28;20466;-41
2022/06/06 00:58:41;;;;;;;6.90;6.20;;;22.70;82.60;;;;;;5096474;28;20450;-37
2022/06/06 01:01:08;;;;;;;7.90;7.10;;;22.60;84.70;;;;;;5096692;28;20457;-40
2022/06/06 01:03:38;;;;;;;8.60;8.00;;;22.60;86.50;;;;;;5096792;28;20506;-40
2022/06/06 01:06:07;;;;;;;8.53;7.50;;;22.60;88.40;;;;;;5086458;28;20426;-41
2022/06/06 01:08:36;;;;;;;9.57;8.57;;;22.50;91.40;;;;;;5090385;28;20465;-41
2022/06/06 01:11:04;;;;;;;8.77;7.90;;;22.50;92.10;;;;;;5096119;28;20503;-38
2022/06/06 01:13:33;;;;;;;10.50;8.40;;;22.50;93.00;;;;;;5095906;28;20505;-38
2022/06/06 01:16:16;;;;;;;9.60;8.20;;;22.40;96.00;;;;;;5086401;28;20526;-39
2022/06/06 01:18:53;;;;;;;8.23;7.43;;;22.30;97.90;;;;;;5091737;28;20514;-41
2022/06/06 01:22:00;;;;;;;8.50;7.50;;;22.30;99.90;;;;;;5083247;28;20465;-37
2022/06/06 01:24:47;;;;;;;8.60;7.50;;;22.20;99.90;;;;;;5067829;28;20450;-38
2022/06/06 01:27:43;;;;;;;8.90;8.10;;;22.10;99.90;;;;;;5092355;28;20467;-39
2022/06/06 01:30:15;;;;;;;9.43;7.80;;;22.10;99.90;;;;;;5095256;28;20482;-38
2022/06/06 01:32:47;;;;;;;9.13;8.30;;;22.00;99.90;;;;;;5095832;28;20486;-37
2022/06/06 01:35:23;;;;;;;8.40;7.60;;;22.00;99.90;;;;;;5096373;28;20438;-37
2022/06/06 01:37:50;;;;;;;9.17;7.80;;;21.90;99.90;;;;;;5096192;28;20502;-39
2022/06/06 01:40:18;;;;;;;8.00;7.30;;;21.90;99.90;;;;;;5095861;28;20430;-37
2022/06/06 01:42:52;;;;;;;8.27;7.47;;;21.90;99.90;;;;;;5095128;28;20451;-37
2022/06/06 01:45:29;;;;;;;7.00;6.30;;;21.80;99.90;;;;;;5080031;28;20466;-39
2022/06/06 01:48:05;;;;;;;8.43;7.63;;;21.80;99.90;;;;;;5095558;28;20435;-41
2022/06/06 01:50:37;;;;;;;8.60;7.80;;;21.80;99.90;;;;;;5095372;28;20479;-39
2022/06/06 01:53:06;;;;;;;7.70;7.00;;;21.80;99.90;;;;;;5095523;28;20447;-36
2022/06/06 01:55:35;;;;;;;8.40;7.60;;;21.80;99.90;;;;;;5095371;28;20453;-37
2022/06/06 01:58:05;;;;;;;7.83;7.20;;;21.80;99.90;;;;;;5095514;28;20517;-35
2022/06/06 02:00:36;;;;;;;8.47;7.57;;;21.80;99.90;;;;;;5095557;28;20453;-38
2022/06/06 02:03:03;;;;;;;8.43;7.63;;;21.80;99.90;;;;;;5078765;28;20516;-37
2022/06/06 02:05:30;;;;;;;8.73;7.87;;;21.80;99.90;;;;;;5083977;28;20474;-40
2022/06/06 02:07:58;;;;;;;7.93;7.33;;;21.80;99.90;;;;;;5084609;28;20806;-42
2022/06/06 02:10:25;;;;;;;8.63;7.67;;;21.80;99.90;;;;;;5085311;28;20446;-39
2022/06/06 02:12:53;;;;;;;8.70;7.90;;;21.80;99.90;;;;;;5095063;28;20478;-36
2022/06/06 02:15:22;;;;;;;8.13;7.50;;;21.80;99.90;;;;;;5084411;28;20974;-37
2022/06/06 02:17:51;;;;;;;9.27;8.33;;;21.70;99.90;;;;;;5083866;28;20469;-38
2022/06/06 02:20:20;;;;;;;9.03;7.57;;;21.70;99.90;;;;;;5083510;28;20442;-41
2022/06/06 02:22:48;;;;;;;9.83;8.13;;;21.70;99.90;;;;;;5093706;28;20438;-43
2022/06/06 02:25:15;;;;;;;7.70;6.90;;;21.70;99.90;;;;;;5089175;28;20481;-39
2022/06/06 02:27:43;;;;;;;8.80;7.90;;;21.70;99.90;;;;;;5084612;28;20466;-39
2022/06/06 02:30:14;;;;;;;8.77;8.00;;;21.70;99.90;;;;;;5093745;28;20470;-40
2022/06/06 02:32:41;;;;;;;8.37;7.50;;;21.70;99.90;;;;;;5088807;28;20470;-38
2022/06/06 02:35:13;;;;;;;7.63;7.00;;;21.60;99.90;;;;;;5083492;28;20481;-42
2022/06/06 02:37:44;;;;;;;8.67;7.77;;;21.60;99.90;;;;;;5079845;28;20438;-36
2022/06/06 02:40:16;;;;;;;9.13;8.43;;;21.60;99.90;;;;;;5094716;28;20474;-37
2022/06/06 02:42:43;;;;;;;10.00;9.10;;;21.50;99.90;;;;;;5093160;28;20526;-43
2022/06/06 02:45:12;;;;;;;10.73;9.83;;;21.40;99.90;;;;;;5081971;28;20503;-38
2022/06/06 02:47:45;;;;;;;10.33;9.40;;;21.20;99.90;;;;;;5094614;28;20434;-43
2022/06/06 02:50:15;;;;;;;9.83;8.93;;;21.00;99.90;;;;;;5094721;28;20430;-40
2022/06/06 02:52:43;;;;;;;15.90;10.50;;;20.90;99.90;;;;;;5088590;28;20482;-43
2022/06/06 02:55:14;;;;;;;10.50;9.50;;;20.80;99.90;;;;;;5086784;28;20505;-41
2022/06/06 02:57:43;;;;;;;15.13;10.50;;;20.70;99.90;;;;;;5094046;28;20442;-38
2022/06/06 03:00:13;;;;;;;10.80;9.80;;;20.50;99.90;;;;;;5094300;28;20458;-38
2022/06/06 03:02:41;;;;;;;10.97;9.93;;;20.50;99.90;;;;;;5094817;28;20457;-37
2022/06/06 03:05:09;;;;;;;11.53;10.43;;;20.40;99.90;;;;;;5094577;28;20450;-37
2022/06/06 03:07:52;;;;;;;11.17;10.07;;;20.30;99.90;;;;;;5094509;28;20452;-38
2022/06/06 03:10:26;;;;;;;12.27;11.17;;;20.30;99.90;;;;;;5081353;28;20470;-39
2022/06/06 03:13:03;;;;;;;11.67;9.93;;;20.20;99.90;;;;;;5093488;28;20466;-38
2022/06/06 03:15:41;;;;;;;12.73;11.00;;;20.20;99.90;;;;;;5092669;28;20476;-40
2022/06/06 03:21:18;;;;;;;12.03;10.83;;;20.20;99.90;;;;;;5088135;28;20414;-38
2022/06/06 03:24:06;;;;;;;13.00;11.80;;;20.10;99.90;;;;;;5083148;28;20426;-38
2022/06/06 03:26:51;;;;;;;12.37;11.27;;;20.00;99.90;;;;;;5092569;28;20430;-41
2022/06/06 03:29:29;;;;;;;13.03;11.70;;;20.00;99.90;;;;;;5080351;28;20544;-39
2022/06/06 03:32:06;;;;;;;13.40;11.80;;;20.00;99.90;;;;;;5091773;28;20441;-39
2022/06/06 03:34:46;;;;;;;15.47;12.90;;;19.90;99.90;;;;;;5093278;28;20966;-37
2022/06/06 03:37:20;;;;;;;14.07;12.13;;;19.80;99.90;;;;;;5092375;28;20525;-40
2022/06/06 03:39:58;;;;;;;15.30;13.10;;;19.60;99.90;;;;;;5093314;28;20450;-39
2022/06/06 03:42:33;;;;;;;17.57;15.10;;;19.40;99.90;;;;;;5096714;28;20450;-38
2022/06/06 03:45:11;;;;;;;16.00;14.30;;;19.30;99.90;;;;;;5084240;28;20430;-39
2022/06/06 03:47:50;;;;;;;14.90;13.27;;;19.20;99.90;;;;;;5097114;28;20466;-36
2022/06/06 03:50:25;;;;;;;16.50;14.53;;;19.10;99.90;;;;;;5096994;28;20438;-36
2022/06/06 03:52:57;;;;;;;20.03;15.13;;;19.00;99.90;;;;;;5082752;28;20532;-37
2022/06/06 03:55:37;;;;;;;16.93;15.13;;;18.90;99.90;;;;;;5095020;28;20453;-40
2022/06/06 03:58:09;;;;;;;15.50;13.70;;;18.80;99.90;;;;;;5096977;28;20441;-38
2022/06/06 04:00:40;;;;;;;19.03;16.27;;;18.80;99.90;;;;;;5097088;28;20438;-37
2022/06/06 04:03:07;;;;;;;17.70;15.47;;;18.80;99.90;;;;;;5090462;28;20557;-39
2022/06/06 04:05:37;;;;;;;16.60;14.90;;;18.70;99.90;;;;;;5087453;28;20466;-40
2022/06/06 04:08:04;;;;;;;19.80;14.77;;;18.70;99.90;;;;;;5096180;28;20518;-37
2022/06/06 04:10:44;;;;;;;14.77;13.20;;;18.70;99.90;;;;;;5096939;28;20442;-41
2022/06/06 04:13:27;;;;;;;15.83;14.13;;;18.60;99.90;;;;;;5096771;28;20522;-38
2022/06/06 04:16:01;;;;;;;17.03;15.30;;;18.70;99.90;;;;;;5096629;28;20439;-36
2022/06/06 04:18:42;;;;;;;16.00;14.20;;;18.60;99.90;;;;;;5096525;28;20487;-38
2022/06/06 04:21:22;;;;;;;15.33;13.83;;;18.60;99.90;;;;;;5095130;28;20486;-39
2022/06/06 04:24:12;;;;;;;14.80;13.40;;;18.60;99.90;;;;;;5095416;28;20454;-38
2022/06/06 04:26:47;;;;;;;18.03;13.57;;;18.60;99.90;;;;;;5095003;28;20494;-44
2022/06/06 04:29:23;;;;;;;16.47;14.70;;;18.60;99.90;;;;;;5096611;28;20537;-37
2022/06/06 04:32:07;;;;;;;14.73;13.17;;;18.60;99.90;;;;;;5087343;28;20433;-39
2022/06/06 04:34:45;;;;;;;13.60;12.20;;;18.60;99.90;;;;;;5094765;28;20490;-38
2022/06/06 04:37:20;;;;;;;15.40;13.90;;;18.60;99.90;;;;;;5096575;28;20442;-38
2022/06/06 04:39:59;;;;;;;14.23;12.73;;;18.60;99.90;;;;;;5096909;28;20462;-36
2022/06/06 04:42:35;;;;;;;13.03;11.50;;;18.60;99.90;;;;;;5097037;28;20493;-35
2022/06/06 04:45:15;;;;;;;15.30;13.80;;;18.60;99.90;;;;;;5096761;28;20433;-35
2022/06/06 04:47:47;;;;;;;14.47;12.30;;;18.70;99.90;;;;;;5096322;28;20466;-36
2022/06/06 04:50:19;;;;;;;15.40;12.93;;;18.70;99.90;;;;;;5080651;28;20449;-38
2022/06/06 04:52:50;;;;;;;17.53;13.87;;;18.70;99.90;;;;;;5082291;28;20458;-41
2022/06/06 04:55:18;;;;;;;14.53;12.83;;;18.80;99.90;;;;;;5091617;28;20549;-39
2022/06/06 04:57:49;;;;;;;15.47;13.43;;;18.80;99.90;;;;;;5087290;28;20446;-39
2022/06/06 05:00:16;;;;;;;14.90;12.83;;;18.90;99.90;;;;;;5097142;28;20498;-38
2022/06/06 05:02:44;;;;;;;14.87;13.30;;;18.90;99.90;;;;;;5096197;28;20459;-35
2022/06/06 05:05:13;;;;;;;14.73;13.23;;;18.90;99.90;;;;;;5095934;28;20508;-39
2022/06/06 05:08:04;;;;;;;13.73;12.23;;;18.90;99.90;;;;;;5095689;28;20478;-39
2022/06/06 05:10:42;;;;;;;14.60;13.10;;;19.00;99.90;;;;;;5084535;28;20429;-37
2022/06/06 05:13:44;;;;;;;14.30;12.80;;;19.00;99.90;;;;;;5094985;28;20465;-35
2022/06/06 05:16:23;;;;;;;13.37;12.00;;;19.00;99.90;;;;;;5096104;28;20498;-45
2022/06/06 05:19:06;;;;;;;12.77;11.40;;;19.00;99.90;;;;;;5095402;28;20457;-37
2022/06/06 05:21:49;;;;;;;12.80;11.60;;;19.10;99.90;;;;;;5095212;28;20518;-42
2022/06/06 05:24:37;;;;;;;13.03;11.43;;;19.10;99.90;;;;;;5094889;28;20478;-39
2022/06/06 05:27:23;;;;;;;15.30;11.60;;;19.10;99.90;;;;;;5089377;28;20490;-39
2022/06/06 05:30:11;;;;;;;13.80;12.33;;;19.20;99.90;;;;;;5089915;28;20498;-37
2022/06/06 05:33:03;;;;;;;12.57;11.30;;;19.20;99.90;;;;;;5095884;28;20447;-38
2022/06/06 05:36:04;;;;;;;13.20;11.80;;;19.20;99.90;;;;;;5095051;28;20439;-36
2022/06/06 05:38:50;;;;;;;15.07;13.60;;;19.30;99.90;;;;;;5094615;28;20458;-39
2022/06/06 05:41:26;;;;;;;12.17;10.97;;;19.40;99.90;;;;;;5094052;28;20474;-37
2022/06/06 05:44:03;;;;;;;14.10;11.60;;;19.50;99.90;;;;;;5082495;28;20461;-36
2022/06/06 05:46:42;;;;;;;13.17;11.97;;;19.60;99.90;;;;;;5087569;28;20487;-40
2022/06/06 05:49:22;;;;;;;16.03;12.43;;;19.70;99.90;;;;;;5085816;28;20481;-38
2022/06/06 05:52:02;;;;;;;13.63;12.23;;;19.80;99.90;;;;;;5089050;28;20434;-37
2022/06/06 05:54:45;;;;;;;13.17;11.50;;;19.90;99.90;;;;;;5085935;28;20481;-37
2022/06/06 05:57:41;;;;;;;12.70;11.50;;;20.00;99.90;;;;;;5090122;28;20494;-37
2022/06/06 06:00:19;;;;;;;13.13;11.77;;;20.10;99.90;;;;;;5090925;28;20446;-39
2022/06/06 06:03:16;;;;;;;14.30;11.60;;;20.20;99.90;;;;;;5088268;28;20438;-38
2022/06/06 06:05:55;;;;;;;12.77;11.47;;;20.40;99.90;;;;;;5088524;28;20423;-39
2022/06/06 06:08:35;;;;;;;13.27;12.03;;;20.60;99.90;;;;;;5084599;28;20523;-36
2022/06/06 06:11:17;;;;;;;13.27;11.87;;;20.70;99.90;;;;;;5091021;28;20473;-38
2022/06/06 06:13:58;;;;;;;13.90;12.50;;;20.90;99.90;;;;;;5090812;28;20544;-37
2022/06/06 06:16:30;;;;;;;13.97;12.43;;;21.00;99.90;;;;;;5093372;28;20567;-38
2022/06/06 06:19:17;;;;;;;12.27;11.20;;;21.00;99.90;;;;;;5089818;28;20766;-36
2022/06/06 06:21:48;;;;;;;14.57;13.03;;;21.00;99.90;;;;;;5090788;28;20438;-45
2022/06/06 06:24:19;;;;;;;13.43;12.03;;;21.00;99.90;;;;;;5086144;28;21050;-37
2022/06/06 06:26:47;;;;;;;12.17;10.97;;;21.10;99.90;;;;;;5087386;28;20470;-39
2022/06/06 06:29:14;;;;;;;14.90;12.17;;;21.10;99.90;;;;;;5091079;28;20450;-37
2022/06/06 06:31:53;;;;;;;11.23;10.23;;;21.10;99.90;;;;;;5089253;28;20469;-38
2022/06/06 06:34:34;;;;;;;12.30;10.90;;;21.00;99.90;;;;;;5086352;28;20869;-38
2022/06/06 06:37:14;;;;;;;15.03;8.63;;;20.90;99.90;;;;;;5096199;28;20433;-39
2022/06/06 06:40:07;;;;;;;10.27;8.20;;;20.90;99.90;;;;;;5106039;28;20426;-40
2022/06/06 06:42:50;;;;;;;9.57;8.67;;;20.90;99.90;;;;;;5102883;28;20480;-38
2022/06/06 06:45:23;;;;;;;9.10;7.10;;;21.00;99.90;;;;;;5066227;28;20534;-38
2022/06/06 06:47:55;;;;;;;7.63;6.73;;;21.10;99.90;;;;;;5066112;28;20420;-37
2022/06/06 06:50:31;;;;;;;8.90;6.63;;;21.20;99.90;;;;;;5082415;28;20498;-38
2022/06/06 06:53:10;;;;;;;6.80;5.83;;;21.20;99.90;;;;;;5086196;28;20481;-38
2022/06/06 06:55:47;;;;;;;8.60;6.93;;;21.20;99.90;;;;;;5067964;28;20490;-40
2022/06/06 06:58:49;;;;;;;7.77;6.90;;;21.10;99.90;;;;;;5098032;28;20506;-37
2022/06/06 07:01:21;;;;;;;6.43;5.83;;;21.10;99.90;;;;;;5110344;28;20433;-39
2022/06/06 07:09:54;;;;;;;7.60;5.90;;;21.20;99.90;;;;;;5071520;28;20442;-39
2022/06/06 07:12:31;;;;;;;7.00;6.20;;;21.30;99.90;;;;;;5087347;28;20859;-36
2022/06/06 07:15:09;;;;;;;7.77;6.97;;;21.40;99.90;;;;;;5086598;28;20489;-38
2022/06/06 07:17:43;;;;;;;9.50;6.87;;;21.70;99.90;;;;;;5106064;28;20449;-40
2022/06/06 07:20:13;;;;;;;7.87;6.30;;;22.50;99.90;;;;;;5108296;28;20454;-40
2022/06/06 07:23:02;;;;;;;7.20;5.97;;;23.80;99.90;;;;;;5093263;28;20486;-39
2022/06/06 07:25:32;;;;;;;5.77;5.27;;;25.60;99.90;;;;;;5087965;28;20446;-40
2022/06/06 07:27:59;;;;;;;6.93;6.33;;;27.20;99.90;;;;;;5088036;28;20438;-38
2022/06/06 07:30:30;;;;;;;5.50;5.00;;;28.20;99.90;;;;;;5085838;28;20541;-39
2022/06/06 07:33:09;;;;;;;11.03;5.17;;;29.00;99.90;;;;;;5087076;28;20529;-40
2022/06/06 07:35:42;;;;;;;6.07;5.47;;;29.40;98.40;;;;;;5087390;28;20462;-41
2022/06/06 07:38:26;;;;;;;6.50;5.90;;;29.30;97.00;;;;;;5088719;28;20442;-35
2022/06/06 07:41:09;;;;;;;5.73;5.23;;;29.20;95.80;;;;;;5087946;28;20633;-41
2022/06/06 07:43:52;;;;;;;5.90;5.40;;;29.40;97.20;;;;;;5086250;28;20484;-38
2022/06/06 07:46:27;;;;;;;4.90;4.50;;;29.70;95.50;;;;;;5091121;28;20469;-39
2022/06/06 07:49:03;;;;;;;5.10;4.70;;;29.90;93.20;;;;;;5093541;28;20483;-38
2022/06/06 07:51:39;;;;;;;6.53;5.77;;;30.00;92.90;;;;;;5089776;28;20847;-39
2022/06/06 07:54:18;;;;;;;5.97;5.40;;;30.30;90.60;;;;;;5093133;28;20536;-39
2022/06/06 07:56:54;;;;;;;5.60;5.00;;;30.40;89.90;;;;;;5092011;28;20443;-39
2022/06/06 07:59:31;;;;;;;6.47;5.87;;;30.90;87.20;;;;;;5088509;28;20433;-38
2022/06/06 08:02:12;;;;;;;4.90;4.50;;;31.00;83.10;;;;;;5089493;28;20891;-37
2022/06/06 08:04:49;;;;;;;5.07;4.57;;;31.20;83.80;;;;;;5092233;28;20462;-38
2022/06/06 08:07:29;;;;;;;6.10;5.50;;;31.30;80.90;;;;;;5085862;28;20434;-38
2022/06/06 08:10:24;;;;;;;6.23;5.63;;;31.80;79.40;;;;;;5089014;28;20499;-40
2022/06/06 08:13:10;;;;;;;7.20;5.10;;;32.20;75.50;;;;;;5086252;28;20767;-38
2022/06/06 08:15:52;;;;;;;5.67;5.17;;;31.60;75.00;;;;;;5094374;28;20473;-41
2022/06/06 08:18:36;;;;;;;5.03;4.53;;;31.30;74.70;;;;;;5109160;28;20440;-41
2022/06/06 08:21:13;;;;;;;5.60;5.10;;;30.60;76.40;;;;;;5103850;28;20774;-39
2022/06/06 08:23:41;;;;;;;5.80;5.27;;;30.40;77.20;;;;;;5105427;28;20480;-40
2022/06/06 08:26:11;;;;;;;5.23;4.73;;;30.00;81.40;;;;;;5103815;28;20447;-39
2022/06/06 08:28:43;;;;;;;5.40;4.90;;;29.90;79.50;;;;;;5086581;28;20466;-39
2022/06/06 08:31:09;;;;;;;4.57;4.17;;;29.60;81.20;;;;;;5096770;28;20495;-39
2022/06/06 08:33:36;;;;;;;4.80;4.30;;;29.90;81.50;;;;;;5102185;28;20864;-38
2022/06/06 08:36:33;;;;;;;4.93;4.53;;;30.30;80.00;;;;;;5096936;28;20476;-38
2022/06/06 08:39:07;;;;;;;4.80;4.33;;;31.20;77.40;;;;;;5106932;28;20491;-36
2022/06/06 08:42:05;;;;;;;4.53;4.13;;;31.80;74.40;;;;;;5107547;28;20513;-38
2022/06/06 08:44:51;;;;;;;6.27;4.00;;;32.00;68.50;;;;;;5106176;28;20489;-41
2022/06/06 08:47:32;;;;;;;4.40;4.00;;;32.20;68.60;;;;;;5107165;28;20420;-39
2022/06/06 08:53:36;;;;;;;5.90;4.20;;;32.80;65.50;;;;;;5106780;28;20475;-38
2022/06/06 08:56:23;;;;;;;4.37;3.83;;;33.20;63.10;;;;;;5083419;28;20493;-45
2022/06/06 08:59:33;;;;;;;5.07;4.67;;;33.50;61.70;;;;;;5086390;28;20498;-38
2022/06/06 09:02:29;;;;;;;3.93;3.63;;;33.90;59.80;;;;;;5087731;28;20444;-41
2022/06/06 09:05:28;;;;;;;5.20;4.47;;;32.90;61.20;;;;;;5055779;28;20527;-40
2022/06/06 09:08:30;;;;;;;4.13;3.73;;;31.80;63.30;;;;;;5059020;28;20445;-39
2022/06/06 09:11:25;;;;;;;4.30;3.47;;;30.60;65.60;;;;;;5073364;28;20556;-38
2022/06/06 09:14:27;;;;;;;5.17;3.40;;;29.20;69.20;;;;;;5088284;28;20447;-37
2022/06/06 09:17:37;;;;;;;5.20;3.80;;;29.10;71.60;;;;;;5090242;28;20469;-38
2022/06/06 09:20:42;;;;;;;3.67;3.37;;;28.90;71.50;;;;;;5087689;28;20446;-39
2022/06/06 09:23:30;;;;;;;3.37;3.07;;;28.60;75.10;;;;;;5080872;28;20499;-41
2022/06/06 09:26:01;;;;;;;4.13;3.70;;;29.40;71.60;;;;;;5096479;28;20521;-38
2022/06/06 09:28:49;;;;;;;6.23;4.67;;;30.20;71.90;;;;;;5109909;28;20486;-39
2022/06/06 09:31:52;;;;;;;4.90;4.50;;;30.20;69.90;;;;;;5113164;28;20436;-40
2022/06/06 09:34:52;;;;;;;5.00;4.13;;;29.30;72.70;;;;;;5102024;28;20456;-37
2022/06/06 09:37:37;;;;;;;4.70;4.30;;;28.30;75.70;;;;;;5068868;28;20505;-35
2022/06/06 09:40:19;;;;;;;7.77;4.20;;;27.50;78.40;;;;;;5095199;28;20413;-35
2022/06/06 09:43:08;;;;;;;4.20;3.80;;;26.70;81.80;;;;;;5093770;28;20510;-38
2022/06/06 09:45:42;;;;;;;7.57;4.60;;;26.20;87.10;;;;;;5095339;28;20855;-37
2022/06/06 09:48:42;;;;;;;4.53;3.70;;;26.10;91.40;;;;;;5094906;28;20474;-38
2022/06/06 09:51:41;;;;;;;4.97;4.13;;;26.50;92.40;;;;;;5095070;28;20438;-40
2022/06/06 10:01:17;;;;;;;4.10;3.70;;;28.40;80.90;;;;;;5095453;28;20490;-38
2022/06/06 10:04:35;;;;;;;4.90;4.50;;;27.50;83.30;;;;;;5091531;28;20557;-38
2022/06/06 10:07:28;;;;;;;4.87;4.47;;;26.70;87.60;;;;;;5094176;28;20450;-40
2022/06/06 10:10:31;;;;;;;4.73;4.23;;;26.40;91.10;;;;;;5084416;28;20538;-37
2022/06/06 10:13:11;;;;;;;4.70;4.30;;;26.20;91.80;;;;;;5053791;28;20438;-37
2022/06/06 10:16:00;;;;;;;4.23;3.77;;;26.10;92.50;;;;;;5094160;28;20520;-39
2022/06/06 10:19:02;;;;;;;4.20;3.83;;;26.00;93.40;;;;;;5083329;28;20498;-37
2022/06/06 10:21:58;;;;;;;3.90;3.50;;;26.00;92.90;;;;;;5094089;28;20486;-40
2022/06/06 10:24:47;;;;;;;5.20;4.37;;;26.20;93.10;;;;;;5094026;28;20423;-39
2022/06/06 10:27:23;;;;;;;4.23;3.70;;;26.40;92.10;;;;;;5094221;28;20454;-41
2022/06/06 10:30:11;;;;;;;6.43;3.80;;;26.30;93.20;;;;;;5093470;28;20439;-36
2022/06/06 10:33:19;;;;;;;4.80;3.67;;;26.30;93.30;;;;;;5094196;28;20478;-38
2022/06/06 10:35:58;;;;;;;4.40;3.77;;;26.50;93.60;;;;;;5094023;28;20481;-38
2022/06/06 10:39:02;;;;;;;4.23;3.83;;;26.60;92.90;;;;;;5092789;28;20474;-40
2022/06/06 10:41:53;;;;;;;3.67;3.33;;;26.40;93.70;;;;;;5093585;28;20473;-40
2022/06/06 10:44:52;;;;;;;4.23;3.57;;;26.20;94.70;;;;;;5093420;28;20423;-37
2022/06/06 10:47:32;;;;;;;3.80;3.50;;;26.10;95.50;;;;;;5079626;28;20469;-39
2022/06/06 10:50:08;;;;;;;3.90;3.50;;;25.90;95.60;;;;;;5091512;28;20483;-38
2022/06/06 10:53:01;;;;;;;5.90;4.10;;;25.70;95.70;;;;;;5092140;28;20489;-40
2022/06/06 10:56:12;;;;;;;4.90;4.40;;;25.80;96.80;;;;;;5092698;28;20525;-41
2022/06/06 10:59:27;;;;;;;4.60;3.70;;;26.40;95.30;;;;;;5046708;28;20526;-40
2022/06/06 11:02:23;;;;;;;6.00;4.13;;;27.10;92.70;;;;;;5080016;28;20478;-39
2022/06/06 11:05:22;;;;;;;4.07;3.77;;;27.60;93.30;;;;;;5093442;28;20466;-38
2022/06/06 11:08:26;;;;;;;4.73;4.23;;;27.80;91.10;;;;;;5092486;28;20427;-37
2022/06/06 11:11:16;;;;;;;4.27;3.87;;;27.70;90.20;;;;;;5082810;28;20476;-39
2022/06/06 11:13:58;;;;;;;4.83;4.33;;;27.50;91.10;;;;;;5088754;28;20498;-37
2022/06/06 11:17:14;;;;;;;4.03;3.63;;;27.30;91.90;;;;;;5090229;28;20485;-36
2022/06/06 11:20:17;;;;;;;4.90;3.53;;;27.40;92.70;;;;;;5093325;28;20446;-38
2022/06/06 11:22:46;;;;;;;5.40;4.90;;;27.80;92.90;;;;;;5093317;28;20446;-38
2022/06/06 11:25:14;;;;;;;4.90;4.23;;;28.10;92.30;;;;;;5093846;28;20546;-38
2022/06/06 11:28:12;;;;;;;6.57;5.87;;;28.30;90.20;;;;;;5093725;28;20462;-37
2022/06/06 11:31:12;;;;;;;6.07;4.57;;;28.40;90.50;;;;;;5088354;28;20460;-39
2022/06/06 11:34:12;;;;;;;5.07;4.60;;;28.40;90.10;;;;;;5069537;28;20430;-39
2022/06/06 11:37:13;;;;;;;6.10;5.33;;;28.40;90.00;;;;;;5092812;28;20553;-38
2022/06/06 11:40:18;;;;;;;4.30;3.93;;;28.50;89.20;;;;;;5093875;28;20470;-37
2022/06/06 11:43:18;;;;;;;3.83;3.53;;;28.40;89.80;;;;;;5094406;28;20458;-37
2022/06/06 11:46:05;;;;;;;3.87;3.57;;;28.40;85.50;;;;;;5090975;28;20446;-39
2022/06/06 11:49:00;;;;;;;6.93;4.10;;;28.10;86.60;;;;;;5087991;28;20447;-41
2022/06/06 11:51:48;;;;;;;4.07;3.67;;;28.00;88.90;;;;;;5092945;28;20422;-38
2022/06/06 11:54:51;;;;;;;5.53;3.87;;;27.70;86.90;;;;;;5093267;28;20462;-37
2022/06/06 11:57:50;;;;;;;4.23;3.83;;;27.50;87.20;;;;;;5091236;28;20434;-37
2022/06/06 12:00:22;;;;;;;5.73;3.70;;;27.50;87.70;;;;;;5039634;28;20526;-39
2022/06/06 12:03:25;;;;;;;4.20;3.50;;;27.60;87.70;;;;;;5093880;28;20445;-38
2022/06/06 12:06:34;;;;;;;5.90;4.17;;;27.60;86.50;;;;;;5091763;28;20468;-35
2022/06/06 12:09:26;;;;;;;5.57;4.30;;;27.50;87.50;;;;;;5094398;28;20442;-38
2022/06/06 12:12:28;;;;;;;4.20;3.80;;;27.30;88.00;;;;;;5087873;28;20442;-38
2022/06/06 12:15:28;;;;;;;5.10;3.70;;;27.20;87.90;;;;;;5095493;28;20457;-36
2022/06/06 12:18:20;;;;;;;3.63;3.30;;;27.30;88.20;;;;;;5095930;28;20473;-45
2022/06/06 12:21:21;;;;;;;4.33;3.07;;;27.30;86.00;;;;;;5096966;28;20478;-37
2022/06/06 12:24:10;;;;;;;6.20;3.97;;;27.40;87.60;;;;;;5096110;28;20436;-42
2022/06/06 12:27:04;;;;;;;4.60;4.10;;;27.50;89.90;;;;;;5097329;28;20454;-36
2022/06/06 12:30:04;;;;;;;7.60;4.03;;;27.40;85.80;;;;;;5096947;28;20431;-39
2022/06/06 12:32:45;;;;;;;5.47;4.97;;;27.30;86.00;;;;;;5094822;28;20554;-40
2022/06/06 12:35:22;;;;;;;4.63;4.10;;;27.10;88.90;;;;;;5096996;28;20465;-37
2022/06/06 12:37:58;;;;;;;3.73;3.20;;;26.90;89.50;;;;;;5096085;28;20476;-39
2022/06/06 12:40:37;;;;;;;4.30;3.90;;;26.60;90.80;;;;;;5095227;28;20438;-39
2022/06/06 12:43:12;;;;;;;4.20;3.80;;;26.30;92.70;;;;;;5073864;28;20459;-37
2022/06/06 12:46:03;;;;;;;3.97;3.67;;;26.20;94.10;;;;;;5073522;28;20404;-37
2022/06/06 12:49:00;;;;;;;5.90;4.27;;;26.10;95.70;;;;;;5074057;28;20436;-39
2022/06/06 12:51:41;;;;;;;5.60;3.33;;;26.00;95.20;;;;;;5075919;28;20534;-36
2022/06/06 12:54:20;;;;;;;4.10;3.57;;;26.40;94.80;;;;;;5073491;28;20420;-38
2022/06/06 12:56:54;;;;;;;4.13;3.73;;;26.60;93.30;;;;;;5076597;28;20501;-37
2022/06/06 12:59:42;;;;;;;4.43;3.43;;;26.60;94.60;;;;;;5076271;28;20483;-40
2022/06/06 13:02:35;;;;;;;3.50;3.00;;;26.50;94.90;;;;;;5075821;28;20526;-36
2022/06/06 13:05:16;;;;;;;3.73;3.20;;;26.30;94.60;;;;;;5070729;28;20443;-38
2022/06/06 13:08:08;;;;;;;4.70;3.90;;;26.20;95.90;;;;;;5064796;28;20442;-38
2022/06/06 13:10:47;;;;;;;3.90;3.53;;;26.10;95.20;;;;;;5091266;28;20517;-39
2022/06/06 13:13:41;;;;;;;5.33;4.20;;;26.10;96.10;;;;;;5092897;28;20427;-38
2022/06/06 13:16:20;;;;;;;4.07;3.07;;;26.20;96.40;;;;;;5093463;28;20498;-39
2022/06/06 13:19:03;;;;;;;3.90;3.50;;;26.40;93.90;;;;;;5093555;28;20453;-37
2022/06/06 13:21:47;;;;;;;3.80;3.40;;;26.70;94.10;;;;;;5095615;28;20561;-41
2022/06/06 13:24:49;;;;;;;4.30;3.20;;;27.00;94.20;;;;;;5082603;28;20422;-39
2022/06/06 13:27:20;;;;;;;4.13;3.80;;;27.30;93.00;;;;;;5096164;28;20517;-39
2022/06/06 13:29:47;;;;;;;5.63;3.50;;;27.50;91.70;;;;;;5095788;28;20439;-39
2022/06/06 13:32:40;;;;;;;5.73;4.33;;;27.60;90.60;;;;;;5092344;28;20506;-36
2022/06/06 13:35:20;;;;;;;4.30;3.90;;;27.40;90.20;;;;;;5091723;28;20525;-36
2022/06/06 13:38:09;;;;;;;4.13;3.53;;;27.30;90.50;;;;;;5095187;28;20441;-37
2022/06/06 13:40:42;;;;;;;4.27;3.87;;;27.20;90.40;;;;;;5096005;28;20467;-36
2022/06/06 13:43:54;;;;;;;3.40;3.10;;;27.20;89.80;;;;;;5095280;28;20442;-38
2022/06/06 13:46:31;;;;;;;4.00;3.47;;;27.10;90.60;;;;;;5081966;28;20466;-38
2022/06/06 13:49:13;;;;;;;4.47;4.07;;;27.20;91.10;;;;;;5096140;28;20435;-37
2022/06/06 13:51:52;;;;;;;4.93;3.60;;;27.20;91.70;;;;;;5094871;28;20456;-33
2022/06/06 13:54:31;;;;;;;3.70;3.37;;;27.10;91.80;;;;;;5094667;28;20457;-37
2022/06/06 13:57:22;;;;;;;4.77;4.33;;;27.10;92.40;;;;;;5093968;28;20493;-35
2022/06/06 14:00:25;;;;;;;4.20;3.80;;;26.90;92.00;;;;;;5093500;28;20500;-39
2022/06/06 14:03:11;;;;;;;4.43;4.03;;;26.80;91.90;;;;;;5093686;28;20458;-41
2022/06/06 14:06:14;;;;;;;4.30;3.90;;;26.90;91.30;;;;;;5094588;28;20458;-41
2022/06/06 14:08:51;;;;;;;4.07;3.00;;;27.30;90.90;;;;;;5056812;28;20450;-40
2022/06/06 14:11:38;;;;;;;4.33;3.30;;;27.50;89.60;;;;;;5092252;28;20434;-38
2022/06/06 14:14:05;;;;;;;4.27;3.87;;;27.70;86.60;;;;;;5073743;28;20443;-39